createdAt,value
2017-09-17T00:00:50.424Z,90.20
2017-09-17T00:03:16.439Z,90.30
2017-09-17T00:05:44.216Z,90.30
2017-09-17T00:08:10.247Z,90.20
2017-09-17T00:10:36.275Z,90.30
2017-09-17T00:13:02.302Z,90.30
2017-09-17T00:15:28.331Z,90.20
2017-09-17T00:17:54.707Z,90.10
2017-09-17T00:20:20.735Z,90.20
2017-09-17T00:22:46.739Z,90.10
2017-09-17T00:25:13.512Z,90.30
2017-09-17T00:27:39.519Z,90.30
2017-09-17T00:30:05.542Z,90.30
2017-09-17T00:32:31.847Z,90.40
2017-09-17T00:34:57.875Z,90.40
2017-09-17T00:37:24.662Z,90.50
2017-09-17T00:39:50.675Z,90.50
2017-09-17T00:42:16.694Z,90.30
2017-09-17T00:44:50.073Z,90.40
2017-09-17T00:47:16.094Z,90.40
2017-09-17T00:49:42.151Z,90.80
2017-09-17T00:52:08.203Z,90.50
2017-09-17T00:54:34.967Z,90.50
2017-09-17T00:57:00.985Z,90.90
2017-09-17T00:59:27.806Z,90.70
2017-09-17T01:01:53.818Z,90.70
2017-09-17T01:04:19.848Z,90.70
2017-09-17T01:06:46.630Z,90.90
2017-09-17T01:09:12.673Z,90.90
2017-09-17T01:11:38.698Z,90.80
2017-09-17T01:14:04.851Z,90.70
2017-09-17T01:16:30.882Z,90.60
2017-09-17T01:18:57.644Z,90.70
2017-09-17T01:21:23.687Z,90.70
2017-09-17T01:23:49.719Z,90.70
2017-09-17T01:26:15.738Z,90.60
2017-09-17T01:28:41.806Z,90.60
2017-09-17T01:31:07.822Z,90.50
2017-09-17T01:33:33.850Z,90.50
2017-09-17T01:35:59.879Z,90.60
2017-09-17T01:38:26.691Z,90.60
2017-09-17T01:40:52.695Z,90.60
2017-09-17T01:43:18.718Z,90.60
2017-09-17T01:45:44.762Z,90.50
2017-09-17T01:48:10.789Z,90.50
2017-09-17T01:50:36.802Z,90.60
2017-09-17T01:53:02.819Z,90.60
2017-09-17T01:55:28.893Z,90.80
2017-09-17T01:57:55.642Z,90.70
2017-09-17T02:00:21.672Z,90.70
2017-09-17T02:02:47.711Z,90.70
2017-09-17T02:05:13.744Z,90.80
2017-09-17T02:07:39.745Z,90.90
2017-09-17T02:10:05.782Z,90.90
2017-09-17T02:12:31.812Z,90.90
2017-09-17T02:14:57.846Z,90.80
2017-09-17T02:17:24.244Z,90.60
2017-09-17T02:19:50.241Z,90.60
2017-09-17T02:22:17.013Z,90.80
2017-09-17T02:24:43.227Z,90.80
2017-09-17T02:27:09.233Z,90.60
2017-09-17T02:29:36.006Z,90.40
2017-09-17T02:32:02.035Z,90.40
2017-09-17T02:34:28.083Z,90.50
2017-09-17T02:36:54.110Z,90.50
2017-09-17T02:39:20.403Z,90.60
2017-09-17T02:41:46.419Z,90.60
2017-09-17T02:44:12.439Z,90.50
2017-09-17T02:46:38.486Z,90.60
2017-09-17T02:49:04.515Z,90.60
2017-09-17T02:51:30.528Z,90.50
2017-09-17T02:53:56.555Z,90.60
2017-09-17T02:56:22.558Z,90.70
2017-09-17T02:58:48.569Z,90.70
2017-09-17T03:01:14.618Z,90.60
2017-09-17T03:03:40.639Z,90.60
2017-09-17T03:06:06.663Z,90.60
2017-09-17T03:08:32.710Z,90.60
2017-09-17T03:11:00.196Z,91.00
2017-09-17T03:13:26.978Z,90.60
2017-09-17T03:15:53.006Z,90.60
2017-09-17T03:18:19.038Z,90.80
2017-09-17T03:20:45.042Z,90.80
2017-09-17T03:23:11.063Z,90.90
2017-09-17T03:25:37.130Z,90.80
2017-09-17T03:28:03.143Z,90.60
2017-09-17T03:30:30.682Z,90.50
2017-09-17T03:32:56.742Z,90.50
2017-09-17T03:35:23.500Z,90.90
2017-09-17T03:37:49.511Z,90.60
2017-09-17T03:40:16.333Z,90.50
2017-09-17T03:42:43.249Z,90.80
2017-09-17T03:45:09.310Z,90.80
2017-09-17T03:47:36.113Z,90.50
2017-09-17T03:50:02.123Z,90.50
2017-09-17T03:52:28.134Z,90.50
2017-09-17T03:54:54.205Z,90.40
2017-09-17T03:57:20.230Z,90.50
2017-09-17T03:59:46.272Z,90.90
2017-09-17T04:02:13.642Z,90.50
2017-09-17T04:04:39.659Z,90.50
2017-09-17T04:07:05.662Z,90.60
2017-09-17T04:09:32.429Z,90.30
2017-09-17T04:11:58.450Z,90.30
2017-09-17T04:14:24.453Z,90.30
2017-09-17T04:16:50.503Z,90.40
2017-09-17T04:19:16.514Z,90.80
2017-09-17T04:21:42.523Z,90.50
2017-09-17T04:24:09.583Z,90.40
2017-09-17T04:26:35.606Z,90.40
2017-09-17T04:29:01.618Z,90.80
2017-09-17T04:31:27.663Z,90.40
2017-09-17T04:33:53.662Z,90.50
2017-09-17T04:36:19.674Z,90.50
2017-09-17T04:38:46.451Z,90.30
2017-09-17T04:41:12.473Z,90.30
2017-09-17T04:43:38.477Z,90.00
2017-09-17T04:46:04.527Z,90.20
2017-09-17T04:48:30.530Z,90.10
2017-09-17T04:50:56.545Z,90.30
2017-09-17T04:53:22.578Z,90.30
2017-09-17T04:55:48.599Z,90.30
2017-09-17T04:58:14.612Z,90.10
2017-09-17T05:00:40.650Z,90.10
2017-09-17T05:03:06.666Z,90.30
2017-09-17T05:05:32.674Z,90.40
2017-09-17T05:07:58.687Z,90.40
2017-09-17T05:10:25.458Z,90.30
2017-09-17T05:12:51.470Z,90.30
2017-09-17T05:15:17.469Z,90.40
2017-09-17T05:17:44.255Z,90.70
2017-09-17T05:20:10.287Z,90.70
2017-09-17T05:22:36.314Z,90.70
2017-09-17T05:25:02.377Z,90.60
2017-09-17T05:27:28.386Z,90.50
2017-09-17T05:29:55.130Z,90.30
2017-09-17T05:32:21.894Z,90.50
2017-09-17T05:34:47.896Z,90.50
2017-09-17T05:37:14.648Z,90.30
2017-09-17T05:39:40.707Z,90.30
2017-09-17T05:42:06.804Z,90.20
2017-09-17T05:44:32.808Z,90.10
2017-09-17T05:46:59.574Z,90.00
2017-09-17T05:49:25.574Z,90.00
2017-09-17T05:51:51.591Z,89.40
2017-09-17T05:54:18.356Z,89.00
2017-09-17T05:56:44.363Z,89.00
2017-09-17T05:59:10.381Z,89.60
2017-09-17T06:01:36.450Z,89.80
2017-09-17T06:04:02.479Z,89.20
2017-09-17T06:06:28.498Z,89.20
2017-09-17T06:08:54.898Z,88.60
2017-09-17T06:11:20.898Z,89.00
2017-09-17T06:13:47.642Z,89.40
2017-09-17T06:16:13.678Z,89.30
2017-09-17T06:18:39.694Z,89.60
2017-09-17T06:21:05.716Z,89.50
2017-09-17T06:23:31.762Z,89.30
2017-09-17T06:25:57.790Z,88.80
2017-09-17T06:28:23.790Z,88.50
2017-09-17T06:30:50.118Z,88.40
2017-09-17T06:33:16.139Z,88.70
2017-09-17T06:35:42.146Z,89.00
2017-09-17T06:38:09.111Z,88.90
2017-09-17T06:40:35.128Z,89.60
2017-09-17T06:43:01.163Z,89.00
2017-09-17T06:45:27.222Z,88.70
2017-09-17T06:47:53.259Z,88.60
2017-09-17T06:50:19.280Z,88.40
2017-09-17T06:52:45.319Z,88.00
2017-09-17T06:55:12.082Z,88.60
2017-09-17T06:57:38.115Z,88.60
2017-09-17T07:00:04.434Z,87.40
2017-09-17T07:02:30.451Z,87.50
2017-09-17T07:04:56.479Z,87.00
2017-09-17T07:07:23.387Z,86.80
2017-09-17T07:09:50.145Z,86.70
2017-09-17T07:12:16.894Z,86.40
2017-09-17T07:14:43.129Z,86.40
2017-09-17T07:17:09.130Z,85.70
2017-09-17T07:19:35.874Z,86.00
2017-09-17T07:22:02.836Z,85.10
2017-09-17T07:24:28.886Z,85.60
2017-09-17T07:26:54.901Z,85.00
2017-09-17T07:29:21.208Z,85.00
2017-09-17T07:31:47.215Z,84.60
2017-09-17T07:34:13.881Z,84.30
2017-09-17T07:36:39.902Z,83.50
2017-09-17T07:39:05.958Z,84.70
2017-09-17T07:41:31.971Z,84.20
2017-09-17T07:43:58.459Z,84.30
2017-09-17T07:46:24.470Z,83.70
2017-09-17T07:48:51.222Z,83.20
2017-09-17T07:51:17.271Z,83.20
2017-09-17T07:53:43.298Z,82.40
2017-09-17T07:56:09.302Z,81.10
2017-09-17T07:58:35.355Z,81.90
2017-09-17T08:01:01.367Z,80.70
2017-09-17T08:03:27.391Z,80.30
2017-09-17T08:05:53.701Z,80.10
2017-09-17T08:08:19.710Z,80.10
2017-09-17T08:10:45.721Z,79.80
2017-09-17T08:13:11.759Z,80.20
2017-09-17T08:15:37.809Z,79.80
2017-09-17T08:18:03.858Z,80.20
2017-09-17T08:20:30.230Z,81.00
2017-09-17T08:22:56.259Z,81.00
2017-09-17T08:25:22.266Z,79.80
2017-09-17T08:27:48.334Z,79.80
2017-09-17T08:30:14.337Z,79.50
2017-09-17T08:32:40.391Z,79.30
2017-09-17T08:35:06.867Z,78.90
2017-09-17T08:37:32.872Z,78.30
2017-09-17T08:39:59.642Z,78.50
2017-09-17T08:42:25.663Z,78.50
2017-09-17T08:44:51.740Z,78.00
2017-09-17T08:47:17.738Z,76.60
2017-09-17T08:49:44.133Z,76.70
2017-09-17T08:52:10.159Z,77.40
2017-09-17T08:54:36.728Z,76.90
2017-09-17T08:57:02.903Z,76.70
2017-09-17T08:59:29.514Z,76.70
2017-09-17T09:01:56.312Z,76.80
2017-09-17T09:04:22.931Z,76.60
2017-09-17T09:06:48.951Z,77.60
2017-09-17T09:09:15.102Z,77.30
2017-09-17T09:11:41.149Z,77.10
2017-09-17T09:14:07.212Z,76.30
2017-09-17T09:16:33.259Z,75.70
2017-09-17T09:18:59.326Z,75.90
2017-09-17T09:21:26.614Z,75.80
2017-09-17T09:23:52.650Z,75.80
2017-09-17T09:26:18.653Z,75.50
2017-09-17T09:28:44.674Z,75.80
2017-09-17T09:31:10.691Z,76.30
2017-09-17T09:33:36.743Z,75.30
2017-09-17T09:36:02.768Z,76.30
2017-09-17T09:38:28.866Z,75.50
2017-09-17T09:40:54.874Z,74.50
2017-09-17T09:43:20.904Z,74.00
2017-09-17T09:45:46.917Z,74.60
2017-09-17T09:48:13.046Z,72.70
2017-09-17T09:50:39.215Z,73.30
2017-09-17T09:53:05.506Z,70.00
2017-09-17T09:55:31.533Z,67.30
2017-09-17T09:57:57.573Z,63.90
2017-09-17T10:00:23.631Z,63.00
2017-09-17T10:02:49.686Z,56.20
2017-09-17T10:05:15.699Z,53.80
2017-09-17T10:07:41.715Z,51.90
2017-09-17T10:10:07.751Z,49.40
2017-09-17T10:12:33.774Z,47.20
2017-09-17T10:15:00.006Z,48.90
2017-09-17T10:17:26.016Z,48.50
2017-09-17T10:22:22.510Z,45.60
2017-09-17T10:24:48.537Z,45.70
2017-09-17T10:27:14.546Z,47.50
2017-09-17T10:29:40.575Z,51.00
2017-09-17T10:32:06.607Z,52.60
2017-09-17T10:34:32.631Z,53.80
2017-09-17T10:36:59.220Z,54.20
2017-09-17T10:39:25.243Z,54.40
2017-09-17T10:41:51.251Z,56.80
2017-09-17T10:44:17.283Z,57.70
2017-09-17T10:46:43.419Z,57.60
2017-09-17T10:49:09.458Z,59.30
2017-09-17T10:51:35.502Z,59.60
2017-09-17T10:54:01.526Z,61.30
2017-09-17T10:56:28.331Z,61.30
2017-09-17T10:58:54.384Z,61.20
2017-09-17T11:01:20.414Z,62.50
2017-09-17T11:03:47.498Z,64.00
2017-09-17T11:06:13.518Z,64.00
2017-09-17T11:08:39.534Z,61.50
2017-09-17T11:11:05.584Z,62.30
2017-09-17T11:13:31.598Z,61.50
2017-09-17T11:15:57.630Z,61.90
2017-09-17T11:18:23.919Z,62.60
2017-09-17T11:20:49.950Z,60.70
2017-09-17T11:23:15.970Z,61.30
2017-09-17T11:25:42.022Z,62.10
2017-09-17T11:28:08.039Z,62.20
2017-09-17T11:30:34.070Z,62.40
2017-09-17T11:33:00.091Z,60.60
2017-09-17T11:35:26.101Z,61.50
2017-09-17T11:37:52.118Z,61.80
2017-09-17T11:40:18.179Z,58.80
2017-09-17T11:42:44.210Z,59.50
2017-09-17T11:45:11.019Z,61.10
2017-09-17T11:47:37.319Z,61.20
2017-09-17T11:50:03.344Z,61.00
2017-09-17T11:52:29.351Z,61.00
2017-09-17T11:54:55.570Z,59.70
2017-09-17T11:57:21.587Z,60.00
2017-09-17T11:59:47.614Z,56.60
2017-09-17T12:02:15.216Z,56.80
2017-09-17T12:04:41.261Z,58.00
2017-09-17T12:07:07.372Z,59.00
2017-09-17T12:09:33.423Z,59.30
2017-09-17T12:12:00.171Z,59.00
2017-09-17T12:14:26.918Z,59.90
2017-09-17T12:16:53.686Z,59.30
2017-09-17T12:19:19.699Z,61.60
2017-09-17T12:21:45.738Z,64.90
2017-09-17T12:24:11.761Z,68.20
2017-09-17T12:26:39.834Z,69.70
2017-09-17T12:29:07.570Z,71.30
2017-09-17T12:31:33.790Z,71.40
2017-09-17T12:33:59.820Z,71.00
2017-09-17T12:36:25.838Z,71.00
2017-09-17T12:38:51.854Z,71.00
2017-09-17T12:41:17.863Z,71.50
2017-09-17T12:43:43.907Z,72.00
2017-09-17T12:46:09.920Z,72.30
2017-09-17T12:48:35.924Z,71.20
2017-09-17T12:51:02.718Z,71.20
2017-09-17T12:53:28.727Z,71.20
2017-09-17T12:55:54.761Z,71.70
2017-09-17T12:58:20.791Z,72.30
2017-09-17T13:00:46.799Z,73.00
2017-09-17T13:03:12.822Z,73.20
2017-09-17T13:05:38.891Z,73.30
2017-09-17T13:08:05.686Z,74.70
2017-09-17T13:10:31.698Z,74.60
2017-09-17T13:12:58.113Z,76.50
2017-09-17T13:15:24.127Z,78.20
2017-09-17T13:17:50.150Z,79.20
2017-09-17T13:20:16.182Z,81.80
2017-09-17T13:22:42.210Z,83.80
2017-09-17T13:25:08.219Z,82.40
2017-09-17T13:27:34.283Z,82.40
2017-09-17T13:30:00.313Z,84.30
2017-09-17T13:32:26.383Z,85.10
2017-09-17T13:34:52.423Z,86.00
2017-09-17T13:37:18.447Z,85.60
2017-09-17T13:39:44.466Z,86.70
2017-09-17T13:42:10.517Z,86.10
2017-09-17T13:44:36.546Z,84.00
2017-09-17T13:47:02.585Z,84.40
2017-09-17T13:49:29.658Z,85.40
2017-09-17T13:51:55.667Z,85.40
2017-09-17T13:54:21.706Z,86.80
2017-09-17T13:56:47.733Z,86.70
2017-09-17T13:59:13.795Z,86.30
2017-09-17T14:01:44.682Z,86.50
2017-09-17T14:04:14.074Z,88.10
2017-09-17T14:06:46.165Z,87.30
2017-09-17T14:09:12.216Z,88.20
2017-09-17T14:11:38.599Z,89.30
2017-09-17T14:14:04.652Z,89.70
2017-09-17T14:16:30.673Z,89.60
2017-09-17T14:18:56.757Z,90.20
2017-09-17T14:21:22.790Z,90.30
2017-09-17T14:23:48.811Z,90.20
2017-09-17T14:26:14.838Z,90.90
2017-09-17T14:28:40.872Z,90.70
2017-09-17T14:31:06.980Z,90.80
2017-09-17T14:33:32.990Z,90.60
2017-09-17T14:35:59.433Z,90.70
2017-09-17T14:38:25.459Z,90.60
2017-09-17T14:40:51.541Z,90.20
2017-09-17T14:43:17.570Z,89.60
2017-09-17T14:45:44.357Z,88.50
2017-09-17T14:48:10.403Z,88.50
2017-09-17T14:50:36.446Z,88.10
2017-09-17T14:53:02.462Z,87.00
2017-09-17T14:55:28.476Z,88.10
2017-09-17T14:57:54.515Z,87.10
2017-09-17T15:00:21.258Z,87.60
2017-09-17T15:02:47.255Z,87.60
2017-09-17T15:05:13.321Z,89.30
2017-09-17T15:07:40.063Z,89.80
2017-09-17T15:10:06.847Z,90.00
2017-09-17T15:12:32.902Z,90.00
2017-09-17T15:14:59.106Z,89.50
2017-09-17T15:17:25.111Z,90.30
2017-09-17T15:19:51.523Z,90.60
2017-09-17T15:22:17.560Z,90.20
2017-09-17T15:24:43.566Z,89.90
2017-09-17T15:27:09.594Z,90.40
2017-09-17T15:29:35.615Z,90.60
2017-09-17T15:32:01.747Z,90.80
2017-09-17T15:34:27.770Z,91.10
2017-09-17T15:36:53.782Z,90.90
2017-09-17T15:39:19.818Z,90.60
2017-09-17T15:41:45.823Z,90.80
2017-09-17T15:44:11.828Z,90.80
2017-09-17T15:46:38.166Z,90.80
2017-09-17T15:49:04.179Z,90.80
2017-09-17T15:51:30.922Z,91.20
2017-09-17T15:53:57.687Z,90.60
2017-09-17T15:56:23.697Z,90.60
2017-09-17T15:58:49.734Z,90.60
2017-09-17T16:01:15.770Z,90.50
2017-09-17T16:03:41.770Z,90.40
2017-09-17T16:06:07.787Z,90.40
2017-09-17T16:08:33.795Z,90.20
2017-09-17T16:11:00.627Z,90.50
2017-09-17T16:13:27.407Z,90.40
2017-09-17T16:15:53.418Z,90.40
2017-09-17T16:18:19.434Z,90.40
2017-09-17T16:20:45.472Z,90.50
2017-09-17T16:23:11.516Z,90.70
2017-09-17T16:25:37.539Z,90.90
2017-09-17T16:28:03.543Z,91.10
2017-09-17T16:30:29.577Z,91.20
2017-09-17T16:32:55.605Z,91.30
2017-09-17T16:35:21.619Z,91.30
2017-09-17T16:37:47.649Z,91.60
2017-09-17T16:40:13.646Z,91.70
2017-09-17T16:42:39.654Z,91.80
2017-09-17T16:45:05.984Z,91.60
2017-09-17T16:47:32.007Z,91.50
2017-09-17T16:49:58.039Z,91.60
2017-09-17T16:52:24.102Z,91.60
2017-09-17T16:54:50.126Z,91.70
2017-09-17T16:57:16.184Z,91.70
2017-09-17T16:59:42.221Z,91.70
2017-09-17T17:02:08.247Z,91.80
2017-09-17T17:04:34.275Z,91.90
2017-09-17T17:07:00.310Z,91.90
2017-09-17T17:09:26.354Z,91.80
2017-09-17T17:11:52.383Z,91.80
2017-09-17T17:14:18.387Z,91.80
2017-09-17T17:16:44.680Z,91.90
2017-09-17T17:19:12.675Z,92.10
2017-09-17T17:21:38.703Z,92.20
2017-09-17T17:24:08.415Z,92.50
2017-09-17T17:26:36.772Z,92.20
2017-09-17T17:29:03.593Z,91.90
2017-09-17T17:31:30.318Z,91.90
2017-09-17T17:33:56.575Z,91.80
2017-09-17T17:36:22.590Z,91.90
2017-09-17T17:38:48.802Z,91.80
2017-09-17T17:41:15.598Z,91.70
2017-09-17T17:43:41.676Z,91.80
2017-09-17T17:46:07.725Z,91.70
2017-09-17T17:48:34.485Z,91.80
2017-09-17T17:51:01.266Z,91.60
2017-09-17T17:53:27.306Z,91.60
2017-09-17T17:55:53.323Z,91.70
2017-09-17T17:58:19.346Z,91.70
2017-09-17T18:00:46.170Z,91.60
2017-09-17T18:03:12.971Z,91.30
2017-09-17T18:05:39.695Z,91.40
2017-09-17T18:08:06.045Z,91.50
2017-09-17T18:10:32.102Z,91.80
2017-09-17T18:12:59.629Z,91.60
2017-09-17T18:15:27.312Z,91.50
2017-09-17T18:17:53.388Z,91.60
2017-09-17T18:20:19.402Z,92.10
2017-09-17T18:22:45.623Z,91.90
2017-09-17T18:25:11.643Z,91.80
2017-09-17T18:27:37.749Z,91.90
2017-09-17T18:30:03.810Z,92.00
2017-09-17T18:32:29.861Z,91.90
2017-09-17T18:34:55.917Z,92.00
2017-09-17T18:37:21.980Z,92.00
2017-09-17T18:39:48.055Z,92.00
2017-09-17T18:42:14.346Z,92.00
2017-09-17T18:44:40.424Z,92.00
2017-09-17T18:47:06.574Z,91.70
2017-09-17T18:49:32.666Z,91.90
2017-09-17T18:51:58.702Z,91.90
2017-09-17T18:54:24.748Z,92.10
2017-09-17T18:56:51.023Z,91.90
2017-09-17T18:59:17.792Z,91.90
2017-09-17T19:01:43.855Z,91.90
2017-09-17T19:04:09.922Z,92.00
2017-09-17T19:06:36.671Z,91.90
2017-09-17T19:09:02.711Z,91.90
2017-09-17T19:11:28.758Z,92.10
2017-09-17T19:13:54.818Z,91.80
2017-09-17T19:16:21.917Z,91.90
2017-09-17T19:18:47.966Z,92.00
2017-09-17T19:21:14.076Z,91.90
2017-09-17T19:23:40.183Z,91.70
2017-09-17T19:26:06.218Z,91.80
2017-09-17T19:28:32.249Z,91.90
2017-09-17T19:30:58.314Z,91.90
2017-09-17T19:33:24.401Z,92.00
2017-09-17T19:35:50.446Z,91.80
2017-09-17T19:38:17.563Z,92.10
2017-09-17T19:40:43.581Z,92.10
2017-09-17T19:43:09.623Z,92.20
2017-09-17T19:45:35.640Z,92.00
2017-09-17T19:48:01.819Z,91.90
2017-09-17T19:50:27.846Z,92.20
2017-09-17T19:52:53.946Z,91.80
2017-09-17T19:55:20.004Z,91.60
2017-09-17T19:57:46.019Z,91.40
2017-09-17T20:00:12.105Z,91.50
2017-09-17T20:02:38.882Z,90.30
2017-09-17T20:05:04.915Z,90.30
2017-09-17T20:07:30.918Z,90.30
2017-09-17T20:09:57.294Z,90.40
2017-09-17T20:12:23.314Z,90.60
2017-09-17T20:14:49.327Z,91.00
2017-09-17T20:17:15.611Z,91.00
2017-09-17T20:19:41.634Z,90.90
2017-09-17T20:22:08.014Z,91.00
2017-09-17T20:24:34.026Z,91.30
2017-09-17T20:27:00.047Z,91.10
2017-09-17T20:29:26.070Z,91.10
2017-09-17T20:31:52.094Z,91.10
2017-09-17T20:34:18.095Z,91.20
2017-09-17T20:36:44.130Z,91.20
2017-09-17T20:39:10.214Z,91.10
2017-09-17T20:41:36.240Z,91.10
2017-09-17T20:44:02.294Z,90.90
2017-09-17T20:46:28.299Z,91.00
2017-09-17T20:48:54.327Z,91.10
2017-09-17T20:51:20.380Z,91.30
2017-09-17T20:53:46.393Z,91.30
2017-09-17T20:56:12.386Z,91.30
2017-09-17T20:58:38.434Z,91.40
2017-09-17T21:01:04.452Z,91.30
2017-09-17T21:03:30.466Z,91.30
2017-09-17T21:05:56.482Z,91.40
2017-09-17T21:08:22.506Z,91.40
2017-09-17T21:10:48.578Z,91.50
2017-09-17T21:13:14.623Z,91.60
2017-09-17T21:15:40.650Z,91.80
2017-09-17T21:18:06.677Z,91.60
2017-09-17T21:20:32.697Z,91.60
2017-09-17T21:22:58.713Z,91.60
2017-09-17T21:25:25.022Z,91.60
2017-09-17T21:27:51.773Z,91.70
2017-09-17T21:30:17.781Z,91.70
2017-09-17T21:32:44.554Z,91.70
2017-09-17T21:35:10.561Z,91.70
2017-09-17T21:37:36.583Z,91.60
2017-09-17T21:40:02.816Z,91.80
2017-09-17T21:42:28.826Z,91.90
2017-09-17T21:44:54.839Z,91.90
2017-09-17T21:47:21.134Z,91.70
2017-09-17T21:49:47.150Z,91.10
2017-09-17T21:52:13.174Z,90.90
2017-09-17T21:54:39.218Z,90.90
2017-09-17T21:57:05.240Z,91.40
2017-09-17T21:59:31.238Z,91.10
2017-09-17T22:01:57.258Z,90.50
2017-09-17T22:04:23.298Z,90.50
2017-09-17T22:06:49.302Z,90.10
2017-09-17T22:09:15.302Z,89.20
2017-09-17T22:11:41.359Z,89.50
2017-09-17T22:14:07.370Z,89.60
2017-09-17T22:16:33.386Z,90.10
2017-09-17T22:18:59.438Z,90.50
2017-09-17T22:21:25.453Z,90.70
2017-09-17T22:23:51.465Z,90.60
2017-09-17T22:26:17.739Z,90.20
2017-09-17T22:28:43.757Z,90.50
2017-09-17T22:31:09.785Z,90.30
2017-09-17T22:33:35.812Z,90.40
2017-09-17T22:36:08.918Z,90.40
2017-09-17T22:38:34.974Z,90.70
2017-09-17T22:41:00.977Z,90.70
2017-09-17T22:43:26.981Z,90.70
2017-09-17T22:45:53.293Z,90.60
2017-09-17T22:48:19.302Z,90.80
2017-09-17T22:50:46.049Z,90.90
2017-09-17T22:53:12.270Z,90.90
2017-09-17T22:55:39.030Z,90.60
2017-09-17T22:58:05.052Z,90.60
2017-09-17T23:00:31.470Z,90.60
2017-09-17T23:02:57.469Z,90.20
2017-09-17T23:05:24.217Z,90.70
2017-09-17T23:07:50.989Z,90.90
2017-09-17T23:10:16.996Z,90.80
2017-09-17T23:12:43.002Z,90.70
2017-09-17T23:15:09.810Z,90.90
2017-09-17T23:17:35.814Z,90.90
2017-09-17T23:20:01.829Z,90.70
2017-09-17T23:22:27.868Z,90.60
2017-09-17T23:24:53.884Z,90.80
2017-09-17T23:27:19.891Z,90.70
2017-09-17T23:29:45.900Z,90.70
2017-09-17T23:32:11.897Z,90.60
2017-09-17T23:34:38.653Z,90.50
2017-09-17T23:37:04.686Z,90.50
2017-09-17T23:39:30.713Z,90.60
2017-09-17T23:41:56.735Z,90.60
2017-09-17T23:44:22.762Z,90.60
2017-09-17T23:46:48.783Z,90.60
2017-09-17T23:49:14.774Z,90.70
2017-09-17T23:51:40.809Z,90.60
2017-09-17T23:54:06.830Z,90.60
2017-09-17T23:56:32.844Z,90.60
2017-09-17T23:58:59.414Z,90.50
